Time;durP1;ratioP1;P1;durP2;ratioP2;P2;SDS_P1;SDS_P2;PMS_P1;PMS_P2;Temp;Humidity;BMP_temperature;BMP_pressure;BME280_temperature;BME280_humidity;BME280_pressure;Samples;Min_cycle;Max_cycle;Signal;HPM_P1;HPM_P2
2023/05/23 00:00:46;;;;;;;;;;;;;;;20.34;40.19;100747.47;4195396;28;20030;-65
2023/05/23 00:02:48;;;;;;;;;;;;;;;20.37;40.63;100751.63;4194864;28;20953;-65
2023/05/23 00:04:51;;;;;;;;;;;;;;;20.40;40.74;100753.88;4193694;28;21345;-65
2023/05/23 00:06:53;;;;;;;;;;;;;;;20.38;40.37;100750.56;4168432;28;20012;-65
2023/05/23 00:08:56;;;;;;;;;;;;;;;20.33;40.40;100751.28;4194342;28;20027;-65
2023/05/23 00:10:58;;;;;;;;;;;;;;;20.28;40.61;100742.97;4194838;28;20015;-65
2023/05/23 00:13:01;;;;;;;;;;;;;;;20.30;40.52;100738.06;4194135;28;19959;-65
2023/05/23 00:15:03;;;;;;;;;;;;;;;20.29;40.78;100738.28;4194973;28;19986;-65
2023/05/23 00:17:06;;;;;;;;;;;;;;;20.34;41.04;100741.13;4194684;28;20027;-65
2023/05/23 00:19:10;;;;;;;;;;;;;;;20.34;41.13;100735.66;4194478;28;20019;-65
2023/05/23 00:21:12;;;;;;;;;;;;;;;20.29;41.04;100735.56;4194696;28;20028;-65
2023/05/23 00:23:17;;;;;;;;;;;;;;;20.28;40.95;100733.88;4193838;28;20031;-65
2023/05/23 00:25:20;;;;;;;;;;;;;;;20.25;40.96;100734.34;4195079;28;20019;-65
2023/05/23 00:27:23;;;;;;;;;;;;;;;20.21;41.02;100728.53;4194225;28;20031;-65
2023/05/23 00:29:26;;;;;;;;;;;;;;;20.16;41.28;100721.03;4195372;28;20385;-65
2023/05/23 00:31:28;;;;;;;;;;;;;;;20.09;41.58;100717.56;4194787;28;20011;-65
2023/05/23 00:33:32;;;;;;;;;;;;;;;20.04;41.36;100725.69;4194021;28;20091;-65
2023/05/23 00:35:34;;;;;;;;;;;;;;;19.99;41.46;100717.38;4194163;28;20409;-65
2023/05/23 00:37:36;;;;;;;;;;;;;;;19.96;41.72;100718.66;4193903;28;20020;-65
2023/05/23 00:39:37;;;;;;;;;;;;;;;19.96;41.88;100712.34;4194915;28;20011;-65
2023/05/23 00:41:40;;;;;;;;;;;;;;;19.94;42.00;100717.25;4194034;28;20063;-64
2023/05/23 00:43:42;;;;;;;;;;;;;;;19.89;41.85;100717.13;4193500;28;20015;-65
2023/05/23 00:45:46;;;;;;;;;;;;;;;19.82;41.92;100725.47;4194849;28;20014;-65
2023/05/23 00:47:50;;;;;;;;;;;;;;;19.78;42.06;100722.38;4193597;28;20024;-65
2023/05/23 00:49:52;;;;;;;;;;;;;;;19.74;42.65;100717.59;4193612;28;20024;-65
2023/05/23 00:51:54;;;;;;;;;;;;;;;19.72;42.58;100704.13;4189549;28;20019;-65
2023/05/23 00:53:56;;;;;;;;;;;;;;;19.72;42.52;100709.59;4197146;28;20019;-65
2023/05/23 00:55:59;;;;;;;;;;;;;;;19.70;42.64;100698.06;4196481;28;20279;-65
2023/05/23 00:58:01;;;;;;;;;;;;;;;19.69;42.67;100710.09;4196740;28;20015;-64
2023/05/23 01:00:07;;;;;;;;;;;;;;;19.69;42.68;100710.09;4196242;28;20020;-64
2023/05/23 01:02:11;;;;;;;;;;;;;;;19.67;42.74;100705.91;4196677;28;20016;-64
2023/05/23 01:04:13;;;;;;;;;;;;;;;19.62;42.88;100699.25;4197788;28;20024;-64
2023/05/23 01:06:16;;;;;;;;;;;;;;;19.60;43.09;100698.63;4197499;28;20451;-64
2023/05/23 01:08:18;;;;;;;;;;;;;;;19.62;42.97;100696.50;4194496;28;20028;-64
2023/05/23 01:10:21;;;;;;;;;;;;;;;19.62;42.97;100695.66;4196160;28;20583;-65
2023/05/23 01:12:25;;;;;;;;;;;;;;;19.60;43.09;100689.59;4196943;28;20027;-64
2023/05/23 01:14:29;;;;;;;;;;;;;;;19.60;43.24;100684.94;4197615;28;20020;-64
2023/05/23 01:16:33;;;;;;;;;;;;;;;19.63;42.97;100681.72;4197773;28;20367;-64
2023/05/23 01:18:40;;;;;;;;;;;;;;;19.63;42.99;100675.41;4196221;28;20493;-64
2023/05/23 01:20:45;;;;;;;;;;;;;;;19.63;43.22;100678.16;4196355;28;20016;-64
2023/05/23 01:22:55;;;;;;;;;;;;;;;19.62;43.06;100692.91;4197100;28;20027;-64
2023/05/23 01:24:57;;;;;;;;;;;;;;;19.59;43.41;100687.91;4196008;28;20028;-64
2023/05/23 01:27:01;;;;;;;;;;;;;;;19.53;43.68;100689.72;4196620;28;20131;-64
2023/05/23 01:29:11;;;;;;;;;;;;;;;19.49;43.49;100687.69;4197679;28;20016;-64
2023/05/23 01:31:14;;;;;;;;;;;;;;;19.48;43.68;100686.00;4196225;28;19996;-64
2023/05/23 01:33:17;;;;;;;;;;;;;;;19.48;43.74;100688.75;4195787;28;20028;-64
2023/05/23 01:35:21;;;;;;;;;;;;;;;19.45;43.67;100681.84;4197287;28;20007;-64
2023/05/23 01:37:23;;;;;;;;;;;;;;;19.41;43.73;100692.44;4196082;28;19955;-65
2023/05/23 01:39:25;;;;;;;;;;;;;;;19.41;43.99;100684.22;4195231;28;20015;-64
2023/05/23 01:41:27;;;;;;;;;;;;;;;19.43;44.12;100689.47;4196576;28;20461;-64
2023/05/23 01:43:29;;;;;;;;;;;;;;;19.44;43.65;100680.19;4196920;28;20019;-65
2023/05/23 01:45:32;;;;;;;;;;;;;;;19.46;43.61;100683.50;4196717;28;20003;-66
2023/05/23 01:47:34;;;;;;;;;;;;;;;19.49;43.46;100679.47;4197348;28;20015;-65
2023/05/23 01:49:36;;;;;;;;;;;;;;;19.55;43.64;100670.31;4196323;28;20020;-65
2023/05/23 01:51:38;;;;;;;;;;;;;;;19.62;43.50;100668.25;4195367;28;19971;-65
2023/05/23 01:53:40;;;;;;;;;;;;;;;19.63;43.44;100668.03;4194830;28;20104;-65
2023/05/23 01:55:43;;;;;;;;;;;;;;;19.64;43.64;100655.19;4196222;28;20019;-65
2023/05/23 01:57:47;;;;;;;;;;;;;;;19.64;43.58;100652.44;4188242;28;20462;-65
2023/05/23 01:59:49;;;;;;;;;;;;;;;19.63;43.71;100650.75;4185635;28;20011;-65
2023/05/23 02:01:53;;;;;;;;;;;;;;;19.64;43.37;100666.13;4188106;28;20411;-65
2023/05/23 02:03:55;;;;;;;;;;;;;;;19.66;43.34;100655.75;4211989;28;20036;-65
2023/05/23 02:05:57;;;;;;;;;;;;;;;19.70;43.34;100659.69;4177905;28;20012;-65
2023/05/23 02:07:59;;;;;;;;;;;;;;;19.73;43.23;100661.13;4196413;28;20037;-65
2023/05/23 02:10:01;;;;;;;;;;;;;;;19.66;43.57;100661.25;4195755;28;20369;-65
2023/05/23 02:12:04;;;;;;;;;;;;;;;19.63;43.63;100664.47;4195714;28;20506;-64
2023/05/23 02:14:06;;;;;;;;;;;;;;;19.60;43.53;100664.94;4196707;28;20373;-65
2023/05/23 02:16:08;;;;;;;;;;;;;;;19.55;44.16;100662.09;4196173;28;20027;-65
2023/05/23 02:18:15;;;;;;;;;;;;;;;19.43;44.52;100673.03;4211685;28;19924;-65
2023/05/23 02:20:19;;;;;;;;;;;;;;;19.37;44.81;100679.47;4183289;28;20023;-65
2023/05/23 02:22:23;;;;;;;;;;;;;;;19.40;44.11;100670.75;4211696;28;20039;-65
2023/05/23 02:24:25;;;;;;;;;;;;;;;19.43;44.17;100673.84;4195680;28;20023;-65
2023/05/23 02:26:27;;;;;;;;;;;;;;;19.36;44.98;100675.06;4194743;28;20521;-65
2023/05/23 02:28:29;;;;;;;;;;;;;;;19.24;45.28;100673.13;4195842;28;20015;-65
2023/05/23 02:30:31;;;;;;;;;;;;;;;19.16;45.84;100670.75;4211835;28;20028;-65
2023/05/23 02:32:33;;;;;;;;;;;;;;;19.07;45.70;100663.94;4195961;28;20454;-65
2023/05/23 02:34:38;;;;;;;;;;;;;;;19.05;45.49;100655.97;4195502;28;20026;-65
2023/05/23 02:36:40;;;;;;;;;;;;;;;19.05;45.58;100663.34;4195049;28;20023;-65
2023/05/23 02:38:42;;;;;;;;;;;;;;;19.00;45.66;100661.31;4188043;28;19968;-65
2023/05/23 02:40:44;;;;;;;;;;;;;;;18.98;45.76;100666.22;4194926;28;20010;-65
2023/05/23 02:42:46;;;;;;;;;;;;;;;18.95;45.84;100660.34;4195504;28;20051;-65
2023/05/23 02:44:48;;;;;;;;;;;;;;;18.94;46.06;100651.31;4195089;28;20497;-65
2023/05/23 02:46:50;;;;;;;;;;;;;;;18.94;45.96;100666.91;4212095;28;20020;-65
2023/05/23 02:48:53;;;;;;;;;;;;;;;18.93;46.06;100655.09;4194875;28;20846;-65
2023/05/23 02:50:56;;;;;;;;;;;;;;;18.94;45.74;100651.31;4194407;28;20012;-65
2023/05/23 02:52:59;;;;;;;;;;;;;;;18.90;45.92;100652.84;4194339;28;20019;-65
2023/05/23 02:55:03;;;;;;;;;;;;;;;18.87;45.70;100654.16;4195036;28;20490;-65
2023/05/23 02:57:12;;;;;;;;;;;;;;;18.85;45.53;100652.72;4194605;28;20019;-65
2023/05/23 02:59:16;;;;;;;;;;;;;;;18.82;45.62;100653.97;4194447;28;19967;-65
2023/05/23 03:01:18;;;;;;;;;;;;;;;18.82;45.83;100655.88;4195223;28;20027;-65
2023/05/23 03:03:20;;;;;;;;;;;;;;;18.83;45.88;100649.38;4194830;28;20011;-65
2023/05/23 03:05:22;;;;;;;;;;;;;;;18.83;45.55;100658.41;4194099;28;20032;-65
2023/05/23 03:07:26;;;;;;;;;;;;;;;18.83;45.79;100657.56;4195252;28;20047;-64
2023/05/23 03:09:28;;;;;;;;;;;;;;;18.84;45.32;100657.38;4194629;28;20019;-65
2023/05/23 03:11:30;;;;;;;;;;;;;;;18.82;46.36;100655.88;4196024;28;20028;-65
2023/05/23 03:13:34;;;;;;;;;;;;;;;18.80;46.30;100658.88;4194618;28;21347;-64
2023/05/23 03:15:36;;;;;;;;;;;;;;;18.80;46.48;100661.59;4194553;28;20090;-64
2023/05/23 03:17:39;;;;;;;;;;;;;;;18.79;46.77;100664.56;4194389;28;20039;-64
2023/05/23 03:19:41;;;;;;;;;;;;;;;18.81;46.55;100667.91;4195717;28;19924;-64
2023/05/23 03:21:43;;;;;;;;;;;;;;;18.77;46.43;100667.53;4193895;28;20041;-65
2023/05/23 03:23:46;;;;;;;;;;;;;;;18.75;46.65;100669.69;4194786;28;20019;-64
2023/05/23 03:25:48;;;;;;;;;;;;;;;18.70;47.26;100672.28;4195443;28;20027;-64
2023/05/23 03:27:50;;;;;;;;;;;;;;;18.67;47.65;100673.56;4185791;28;20019;-64
2023/05/23 03:29:52;;;;;;;;;;;;;;;18.68;48.13;100677.13;4195197;28;20011;-65
2023/05/23 03:31:54;;;;;;;;;;;;;;;18.69;48.49;100678.81;4193584;28;20016;-65
2023/05/23 03:33:56;;;;;;;;;;;;;;;18.69;48.82;100676.09;4194974;28;20019;-65
2023/05/23 03:35:59;;;;;;;;;;;;;;;18.68;48.95;100671.66;4194644;28;20011;-64
2023/05/23 03:38:01;;;;;;;;;;;;;;;18.71;48.57;100663.84;4185815;28;20403;-64
2023/05/23 03:40:05;;;;;;;;;;;;;;;18.79;48.51;100662.66;4193673;28;19931;-64
2023/05/23 03:42:07;;;;;;;;;;;;;;;18.82;48.42;100650.41;4192929;28;20007;-65
2023/05/23 03:44:11;;;;;;;;;;;;;;;18.82;48.18;100648.50;4192864;28;20020;-64
2023/05/23 03:46:13;;;;;;;;;;;;;;;18.83;47.16;100647.44;4194387;28;20019;-64
2023/05/23 03:48:17;;;;;;;;;;;;;;;18.89;46.83;100643.81;4193693;28;20023;-64
2023/05/23 03:50:20;;;;;;;;;;;;;;;18.95;46.67;100647.53;4194212;28;20027;-64
2023/05/23 03:52:22;;;;;;;;;;;;;;;19.01;46.50;100638.38;4193906;28;20498;-64
2023/05/23 03:54:25;;;;;;;;;;;;;;;19.09;45.92;100631.72;4194302;28;20593;-65
2023/05/23 03:56:30;;;;;;;;;;;;;;;19.19;45.85;100631.94;4194132;28;20023;-63
2023/05/23 03:58:32;;;;;;;;;;;;;;;19.24;45.59;100626.59;4210168;28;20027;-64
2023/05/23 04:00:39;;;;;;;;;;;;;;;19.23;45.31;100616.72;4193680;28;19975;-64
2023/05/23 04:02:44;;;;;;;;;;;;;;;19.26;45.55;100610.78;4194239;28;20032;-64
2023/05/23 04:04:47;;;;;;;;;;;;;;;19.26;45.47;100623.63;4193982;28;20462;-63
2023/05/23 04:06:50;;;;;;;;;;;;;;;19.25;45.30;100611.00;4192879;28;20040;-64
2023/05/23 04:08:52;;;;;;;;;;;;;;;19.23;45.26;100610.41;4193151;28;20031;-64
2023/05/23 04:10:54;;;;;;;;;;;;;;;19.22;45.35;100608.75;4193116;28;20332;-65
2023/05/23 04:12:59;;;;;;;;;;;;;;;19.25;45.47;100616.50;4193889;28;20533;-65
2023/05/23 04:15:01;;;;;;;;;;;;;;;19.26;45.32;100626.34;4192712;28;20378;-65
2023/05/23 04:17:07;;;;;;;;;;;;;;;19.24;45.36;100629.31;4186592;28;20007;-65
2023/05/23 04:19:11;;;;;;;;;;;;;;;19.23;45.66;100643.25;4192845;28;20031;-65
2023/05/23 04:21:13;;;;;;;;;;;;;;;19.19;45.64;100651.13;4193450;28;19954;-66
2023/05/23 04:23:25;;;;;;;;;;;;;;;19.05;46.57;100666.91;4209098;28;20010;-66
2023/05/23 04:25:30;;;;;;;;;;;;;;;18.93;47.18;100671.53;4186689;28;20458;-65
2023/05/23 04:27:54;;;;;;;;;;;;;;;18.82;47.14;100666.84;4193393;28;20018;-65
2023/05/23 04:29:59;;;;;;;;;;;;;;;18.78;47.25;100658.28;4195717;28;20043;-65
2023/05/23 04:32:01;;;;;;;;;;;;;;;18.82;47.25;100650.41;4195636;28;20018;-64
2023/05/23 04:34:03;;;;;;;;;;;;;;;18.92;46.65;100656.19;4197384;28;19935;-66
2023/05/23 04:36:11;;;;;;;;;;;;;;;19.03;46.64;100646.34;4212746;28;20011;-66
2023/05/23 04:38:17;;;;;;;;;;;;;;;19.11;46.30;100656.94;4197094;28;20019;-66
2023/05/23 04:40:19;;;;;;;;;;;;;;;19.16;46.33;100651.59;4196797;28;20019;-65
2023/05/23 04:42:45;;;;;;;;;;;;;;;19.17;46.04;100649.66;4182695;28;20469;-64
2023/05/23 04:45:04;;;;;;;;;;;;;;;19.21;45.82;100642.66;4195853;28;20044;-66
2023/05/23 04:47:39;;;;;;;;;;;;;;;19.28;45.86;100632.44;4195585;28;20473;-65
2023/05/23 04:49:43;;;;;;;;;;;;;;;19.32;45.70;100619.09;4196067;28;20027;-65
2023/05/23 04:51:46;;;;;;;;;;;;;;;19.35;45.40;100624.94;4195963;28;20015;-65
2023/05/23 04:54:05;;;;;;;;;;;;;;;19.36;45.59;100621.13;4195456;28;20527;-64
2023/05/23 04:56:08;;;;;;;;;;;;;;;19.37;45.76;100633.75;4179430;28;19971;-65
2023/05/23 04:58:12;;;;;;;;;;;;;;;19.33;45.40;100637.22;4196866;28;20023;-64
2023/05/23 05:00:16;;;;;;;;;;;;;;;19.25;45.58;100635.66;4195309;28;20011;-65
2023/05/23 05:02:20;;;;;;;;;;;;;;;19.18;46.30;100634.91;4195563;28;20022;-63
2023/05/23 05:04:22;;;;;;;;;;;;;;;19.08;46.40;100641.81;4197716;28;20588;-64
2023/05/23 05:06:27;;;;;;;;;;;;;;;19.01;47.09;100640.25;4196963;28;20019;-65
2023/05/23 05:08:32;;;;;;;;;;;;;;;18.93;47.17;100648.81;4210931;28;20019;-66
2023/05/23 05:10:36;;;;;;;;;;;;;;;18.85;47.13;100644.50;4196424;28;20030;-64
2023/05/23 05:12:38;;;;;;;;;;;;;;;18.88;47.05;100644.03;4195521;28;20477;-65
2023/05/23 05:14:41;;;;;;;;;;;;;;;18.94;46.91;100636.81;4196358;28;20015;-66
2023/05/23 05:16:46;;;;;;;;;;;;;;;19.02;46.19;100636.47;4204702;28;20450;-66
2023/05/23 05:18:48;;;;;;;;;;;;;;;19.07;46.34;100631.97;4196823;28;20010;-64
2023/05/23 05:20:50;;;;;;;;;;;;;;;19.08;46.39;100636.34;4196420;28;20027;-64
2023/05/23 05:22:55;;;;;;;;;;;;;;;19.09;46.09;100638.03;4195637;28;20015;-65
2023/05/23 05:24:57;;;;;;;;;;;;;;;19.11;45.83;100632.31;4195741;28;20464;-65
2023/05/23 05:26:59;;;;;;;;;;;;;;;19.11;46.75;100634.19;4195332;28;20015;-66
2023/05/23 05:29:01;;;;;;;;;;;;;;;19.02;47.69;100631.81;4211759;28;20014;-65
2023/05/23 05:31:05;;;;;;;;;;;;;;;18.89;48.05;100643.81;4210882;28;20026;-64
2023/05/23 05:33:11;;;;;;;;;;;;;;;18.79;48.43;100645.41;4188375;28;20011;-64
2023/05/23 05:35:14;;;;;;;;;;;;;;;18.68;48.72;100642.44;4194716;28;20087;-63
2023/05/23 05:37:18;;;;;;;;;;;;;;;18.63;48.38;100649.66;4195335;28;20387;-64
2023/05/23 05:39:20;;;;;;;;;;;;;;;18.55;48.95;100657.09;4187342;28;20027;-64
2023/05/23 05:41:23;;;;;;;;;;;;;;;18.55;49.20;100659.03;4194319;28;20023;-64
2023/05/23 05:43:28;;;;;;;;;;;;;;;18.55;49.87;100653.53;4195863;28;20478;-65
2023/05/23 05:45:30;;;;;;;;;;;;;;;18.55;49.88;100656.28;4193329;28;20381;-65
2023/05/23 05:47:32;;;;;;;;;;;;;;;18.56;49.88;100660.69;4211446;28;20018;-65
2023/05/23 05:49:36;;;;;;;;;;;;;;;18.55;49.97;100659.84;4208260;28;20019;-65
2023/05/23 05:51:38;;;;;;;;;;;;;;;18.55;50.08;100667.22;4210841;28;20030;-65
2023/05/23 05:53:40;;;;;;;;;;;;;;;18.52;50.17;100662.22;4210385;28;20063;-65
2023/05/23 05:55:42;;;;;;;;;;;;;;;18.48;50.98;100661.84;4193420;28;20011;-66
2023/05/23 05:57:44;;;;;;;;;;;;;;;18.46;51.06;100663.97;4195576;28;20028;-64
2023/05/23 05:59:47;;;;;;;;;;;;;;;18.41;50.93;100660.28;4194938;28;20012;-64
2023/05/23 06:01:51;;;;;;;;;;;;;;;18.40;51.18;100664.06;4210953;28;20015;-65
2023/05/23 06:03:53;;;;;;;;;;;;;;;18.37;51.99;100658.00;4212301;28;19928;-64
2023/05/23 06:05:56;;;;;;;;;;;;;;;18.36;52.69;100658.22;4196199;28;19929;-64
2023/05/23 06:07:58;;;;;;;;;;;;;;;18.38;52.57;100661.56;4195422;28;20015;-64
2023/05/23 06:10:01;;;;;;;;;;;;;;;18.38;52.02;100650.63;4194388;28;20486;-65
2023/05/23 06:12:03;;;;;;;;;;;;;;;18.41;51.73;100647.44;4195243;28;20470;-64
2023/05/23 06:14:05;;;;;;;;;;;;;;;18.48;52.16;100652.78;4195847;28;20027;-64
2023/05/23 06:16:07;;;;;;;;;;;;;;;18.55;51.79;100648.91;4195123;28;20101;-64
2023/05/23 06:18:10;;;;;;;;;;;;;;;18.60;52.06;100650.94;4185761;28;20023;-64
2023/05/23 06:20:12;;;;;;;;;;;;;;;18.58;51.91;100646.78;4195269;28;20472;-64
2023/05/23 06:22:19;;;;;;;;;;;;;;;18.53;52.19;100650.22;4210156;28;20022;-64
2023/05/23 06:24:21;;;;;;;;;;;;;;;18.51;52.32;100642.25;4194959;28;20023;-65
2023/05/23 06:26:23;;;;;;;;;;;;;;;18.54;51.82;100640.94;4195282;28;19960;-64
2023/05/23 06:28:27;;;;;;;;;;;;;;;18.61;51.37;100643.59;4195912;28;20024;-64
2023/05/23 06:30:30;;;;;;;;;;;;;;;18.69;51.30;100632.31;4195266;28;20019;-64
2023/05/23 06:32:35;;;;;;;;;;;;;;;18.75;50.77;100631.38;4195061;28;20027;-64
2023/05/23 06:34:38;;;;;;;;;;;;;;;18.80;51.19;100633.41;4194631;28;20023;-65
2023/05/23 06:36:41;;;;;;;;;;;;;;;18.79;51.35;100640.75;4195576;28;20039;-65
2023/05/23 06:38:45;;;;;;;;;;;;;;;18.79;50.50;100640.75;4187057;28;20546;-65
2023/05/23 06:40:47;;;;;;;;;;;;;;;18.73;51.01;100645.28;4195224;28;20011;-65
2023/05/23 06:42:50;;;;;;;;;;;;;;;18.68;51.65;100652.50;4182257;28;20024;-65
2023/05/23 06:45:22;;;;;;;;;;;;;;;18.56;52.19;100655.22;4193672;28;20461;-64
2023/05/23 06:47:24;;;;;;;;;;;;;;;18.49;52.30;100657.22;4189998;28;20708;-65
2023/05/23 06:49:26;;;;;;;;;;;;;;;18.43;51.87;100655.41;4201132;28;20012;-65
2023/05/23 06:51:28;;;;;;;;;;;;;;;18.36;51.65;100647.28;4188436;28;20027;-65
2023/05/23 06:53:30;;;;;;;;;;;;;;;18.34;51.96;100660.38;4190267;28;20023;-65
2023/05/23 06:55:34;;;;;;;;;;;;;;;18.33;52.58;100655.97;4192132;28;20019;-64
2023/05/23 06:57:36;;;;;;;;;;;;;;;18.31;52.24;100653.44;4193882;28;20023;-65
2023/05/23 06:59:38;;;;;;;;;;;;;;;18.35;52.12;100653.81;4193132;28;20074;-65
2023/05/23 07:01:40;;;;;;;;;;;;;;;18.38;52.15;100647.88;4194321;28;20477;-64
2023/05/23 07:03:44;;;;;;;;;;;;;;;18.44;52.54;100651.59;4194640;28;20477;-64
2023/05/23 07:05:47;;;;;;;;;;;;;;;18.46;52.05;100654.94;4194257;28;20026;-66
2023/05/23 07:07:52;;;;;;;;;;;;;;;18.39;50.49;100652.31;4193958;28;19932;-65
2023/05/23 07:09:54;;;;;;;;;;;;;;;18.39;51.07;100649.56;4192668;28;20003;-66
2023/05/23 07:12:01;;;;;;;;;;;;;;;18.42;50.94;100651.84;4192180;28;20023;-66
2023/05/23 07:14:04;;;;;;;;;;;;;;;18.53;51.44;100639.28;4193139;28;20011;-66
2023/05/23 07:16:12;;;;;;;;;;;;;;;18.58;50.88;100650.34;4193490;28;20024;-66
2023/05/23 07:18:26;;;;;;;;;;;;;;;18.60;51.68;100648.22;4208004;28;20022;-64
2023/05/23 07:20:28;;;;;;;;;;;;;;;18.62;51.93;100653.44;4192064;28;20008;-65
2023/05/23 07:22:37;;;;;;;;;;;;;;;18.67;51.67;100645.41;4190350;28;20008;-65
2023/05/23 07:24:40;;;;;;;;;;;;;;;18.76;51.95;100645.88;4192460;28;20027;-65
2023/05/23 07:26:42;;;;;;;;;;;;;;;18.87;52.17;100645.97;4192543;28;20027;-65
2023/05/23 07:28:46;;;;;;;;;;;;;;;18.96;51.77;100637.41;4190368;28;20012;-65
2023/05/23 07:30:49;;;;;;;;;;;;;;;19.00;51.62;100642.16;4192835;28;20031;-65
2023/05/23 07:32:52;;;;;;;;;;;;;;;19.08;51.47;100643.72;4192324;28;20023;-65
2023/05/23 07:34:54;;;;;;;;;;;;;;;19.14;51.20;100650.13;4191044;28;20358;-64
2023/05/23 07:36:56;;;;;;;;;;;;;;;19.22;50.39;100644.34;4185978;28;20031;-65
2023/05/23 07:39:01;;;;;;;;;;;;;;;19.30;49.63;100643.97;4186030;28;19967;-64
2023/05/23 07:41:03;;;;;;;;;;;;;;;19.39;49.29;100633.53;4193036;28;20032;-64
2023/05/23 07:43:05;;;;;;;;;;;;;;;19.45;48.90;100633.38;4193537;28;20004;-64
2023/05/23 07:45:09;;;;;;;;;;;;;;;19.50;48.82;100626.34;4193676;28;20027;-64
2023/05/23 07:47:14;;;;;;;;;;;;;;;19.53;48.49;100640.41;4187153;28;20024;-64
2023/05/23 07:49:16;;;;;;;;;;;;;;;19.54;48.25;100633.03;4187264;28;20387;-65
2023/05/23 07:51:20;;;;;;;;;;;;;;;19.58;48.44;100626.81;4178118;28;20004;-65
2023/05/23 07:53:24;;;;;;;;;;;;;;;19.64;48.16;100625.03;4210424;28;20019;-65
2023/05/23 07:55:26;;;;;;;;;;;;;;;19.70;48.21;100625.97;4194916;28;20019;-64
2023/05/23 07:57:30;;;;;;;;;;;;;;;19.75;48.05;100634.31;4194632;28;20028;-65
2023/05/23 07:59:32;;;;;;;;;;;;;;;19.83;48.14;100635.88;4210018;28;20015;-65
2023/05/23 08:01:36;;;;;;;;;;;;;;;19.85;47.92;100631.81;4193570;28;20019;-65
2023/05/23 08:03:40;;;;;;;;;;;;;;;19.87;47.39;100632.41;4196863;28;20687;-65
2023/05/23 08:05:48;;;;;;;;;;;;;;;19.88;47.42;100633.25;4197137;28;20023;-65
2023/05/23 08:07:53;;;;;;;;;;;;;;;19.89;47.47;100645.88;4195196;28;20027;-65
2023/05/23 08:09:55;;;;;;;;;;;;;;;19.95;47.48;100651.25;4196130;28;19935;-64
2023/05/23 08:11:58;;;;;;;;;;;;;;;19.94;47.44;100651.47;4196195;28;20426;-64
2023/05/23 08:14:05;;;;;;;;;;;;;;;19.96;47.68;100646.56;4210315;28;20011;-64
2023/05/23 08:16:13;;;;;;;;;;;;;;;19.99;47.66;100657.88;4196043;28;20023;-64
2023/05/23 08:18:17;;;;;;;;;;;;;;;20.05;47.75;100649.78;4180292;28;20061;-65
2023/05/23 08:20:19;;;;;;;;;;;;;;;20.11;47.99;100655.13;4174565;28;20015;-65
2023/05/23 08:22:21;;;;;;;;;;;;;;;20.18;48.45;100649.50;4193274;28;20023;-65
2023/05/23 08:24:23;;;;;;;;;;;;;;;20.19;48.89;100648.44;4192978;28;20023;-65
2023/05/23 08:26:26;;;;;;;;;;;;;;;20.21;49.49;100650.94;4195745;28;20377;-64
2023/05/23 08:28:28;;;;;;;;;;;;;;;20.27;49.60;100655.44;4195820;28;20015;-64
2023/05/23 08:30:32;;;;;;;;;;;;;;;20.29;49.10;100659.59;4193367;28;19932;-65
2023/05/23 08:32:34;;;;;;;;;;;;;;;20.34;49.13;100662.44;4195900;28;20018;-65
2023/05/23 08:34:38;;;;;;;;;;;;;;;20.42;48.65;100655.72;4195233;28;20023;-65
2023/05/23 08:36:41;;;;;;;;;;;;;;;20.47;48.78;100664.06;4194828;28;20027;-65
2023/05/23 08:38:47;;;;;;;;;;;;;;;20.52;48.43;100663.34;4203799;28;20408;-64
2023/05/23 08:40:57;;;;;;;;;;;;;;;20.51;47.82;100675.38;4196201;28;20022;-65
2023/05/23 08:43:01;;;;;;;;;;;;;;;20.49;47.68;100670.13;4195551;28;20027;-63
2023/05/23 08:45:04;;;;;;;;;;;;;;;20.49;48.28;100677.53;4196656;28;20450;-64
2023/05/23 08:47:06;;;;;;;;;;;;;;;20.52;47.41;100674.31;4195471;28;20103;-65
2023/05/23 08:49:21;;;;;;;;;;;;;;;20.55;47.62;100678.44;4196035;28;20454;-64
2023/05/23 08:51:25;;;;;;;;;;;;;;;20.52;48.04;100679.78;4196579;28;19928;-64
2023/05/23 08:53:28;;;;;;;;;;;;;;;20.49;48.12;100672.88;4195576;28;20015;-64
2023/05/23 08:55:38;;;;;;;;;;;;;;;20.50;48.35;100677.28;4196337;28;20473;-64
2023/05/23 08:57:42;;;;;;;;;;;;;;;20.52;48.71;100688.84;4212416;28;20416;-65
2023/05/23 08:59:59;;;;;;;;;;;;;;;20.55;49.09;100681.19;4189394;28;20027;-65
2023/05/23 09:02:01;;;;;;;;;;;;;;;20.58;49.53;100681.56;4197245;28;20023;-65
2023/05/23 09:04:06;;;;;;;;;;;;;;;20.62;49.74;100687.38;4196381;28;20059;-65
2023/05/23 09:06:28;;;;;;;;;;;;;;;20.70;49.42;100695.25;4196663;28;20016;-64
2023/05/23 09:08:31;;;;;;;;;;;;;;;20.77;49.33;100695.94;4196559;28;20035;-65
2023/05/23 09:10:34;;;;;;;;;;;;;;;20.85;49.29;100697.44;4197067;28;20392;-64
2023/05/23 09:12:37;;;;;;;;;;;;;;;20.88;49.99;100688.72;4196336;28;20463;-65
2023/05/23 09:14:40;;;;;;;;;;;;;;;20.91;50.63;100690.97;4212828;28;20015;-65
2023/05/23 09:16:46;;;;;;;;;;;;;;;20.92;50.79;100697.28;4196790;28;20011;-65
2023/05/23 09:18:48;;;;;;;;;;;;;;;20.89;51.38;100690.38;4197209;28;20023;-64
2023/05/23 09:20:52;;;;;;;;;;;;;;;20.91;51.21;100695.63;4196366;28;20051;-65
2023/05/23 09:22:56;;;;;;;;;;;;;;;20.94;51.40;100701.47;4196607;28;20023;-64
2023/05/23 09:24:59;;;;;;;;;;;;;;;20.95;52.06;100694.88;4212176;28;20043;-66
2023/05/23 09:27:03;;;;;;;;;;;;;;;20.99;52.50;100706.22;4212149;28;20074;-65
2023/05/23 09:29:06;;;;;;;;;;;;;;;20.98;52.46;100705.38;4196761;28;20047;-65
2023/05/23 09:31:09;;;;;;;;;;;;;;;20.99;52.64;100706.22;4195490;28;20506;-65
2023/05/23 09:33:11;;;;;;;;;;;;;;;21.02;52.77;100709.28;4195306;28;19925;-65
2023/05/23 09:35:17;;;;;;;;;;;;;;;21.05;52.74;100703.31;4196726;28;19928;-65
2023/05/23 09:37:23;;;;;;;;;;;;;;;21.09;52.80;100706.38;4195924;28;20007;-65
2023/05/23 09:39:26;;;;;;;;;;;;;;;21.12;52.98;100700.38;4211693;28;20019;-65
2023/05/23 09:41:30;;;;;;;;;;;;;;;21.15;52.99;100701.81;4196307;28;20041;-65
2023/05/23 09:43:32;;;;;;;;;;;;;;;21.18;53.27;100702.16;4196252;28;20024;-64
2023/05/23 09:45:34;;;;;;;;;;;;;;;21.23;52.97;100702.22;4212180;28;20014;-65
2023/05/23 09:47:37;;;;;;;;;;;;;;;21.28;53.02;100709.72;4196062;28;20015;-65
2023/05/23 09:49:40;;;;;;;;;;;;;;;21.32;53.12;100715.56;4196512;28;20024;-65
2023/05/23 09:51:42;;;;;;;;;;;;;;;21.32;52.81;100710.91;4195152;28;20020;-65
2023/05/23 09:53:44;;;;;;;;;;;;;;;21.27;51.99;100718.19;4195813;28;19960;-65
2023/05/23 09:55:48;;;;;;;;;;;;;;;21.23;52.37;100724.19;4195087;28;20075;-65
2023/05/23 09:57:50;;;;;;;;;;;;;;;21.26;51.88;100724.78;4196456;28;20361;-65
2023/05/23 09:59:54;;;;;;;;;;;;;;;21.23;51.78;100721.44;4196341;28;20015;-65
2023/05/23 10:01:56;;;;;;;;;;;;;;;21.20;51.12;100721.94;4195770;28;20123;-65
2023/05/23 10:03:58;;;;;;;;;;;;;;;21.18;51.20;100718.63;4188189;28;20019;-65
2023/05/23 10:06:26;;;;;;;;;;;;;;;21.18;51.77;100723.28;4196746;28;20024;-65
2023/05/23 10:08:30;;;;;;;;;;;;;;;21.14;52.67;100722.94;4196340;28;20059;-65
2023/05/23 10:10:32;;;;;;;;;;;;;;;21.13;53.23;100717.69;4196821;28;20019;-65
2023/05/23 10:12:41;;;;;;;;;;;;;;;21.15;53.95;100713.63;4195587;28;20019;-64
2023/05/23 10:14:44;;;;;;;;;;;;;;;21.22;53.79;100706.06;4196087;28;20366;-65
2023/05/23 10:16:53;;;;;;;;;;;;;;;21.30;54.13;100718.56;4195200;28;20467;-65
2023/05/23 10:18:56;;;;;;;;;;;;;;;21.33;54.29;100718.06;4195832;28;20434;-64
2023/05/23 10:21:06;;;;;;;;;;;;;;;21.35;54.58;100718.63;4195675;28;20027;-65
2023/05/23 10:23:08;;;;;;;;;;;;;;;21.35;54.89;100712.31;4195104;28;20035;-65
2023/05/23 10:25:10;;;;;;;;;;;;;;;21.37;55.63;100712.91;4195003;28;20019;-65
2023/05/23 10:27:12;;;;;;;;;;;;;;;21.34;55.94;100716.97;4194507;28;19932;-65
2023/05/23 10:29:15;;;;;;;;;;;;;;;21.35;56.19;100712.31;4196157;28;20026;-64
2023/05/23 10:31:20;;;;;;;;;;;;;;;21.41;56.21;100716.78;4195298;28;20027;-65
2023/05/23 10:33:22;;;;;;;;;;;;;;;21.47;55.56;100710.28;4195236;28;20032;-65
2023/05/23 10:35:26;;;;;;;;;;;;;;;21.54;56.50;100713.75;4195450;28;20442;-65